createdAt,value
2022-11-25T00:01:26.112Z,2.4
2022-11-25T00:03:31.983Z,3
2022-11-25T00:05:37.754Z,3.2
2022-11-25T00:07:43.594Z,1.7
2022-11-25T00:11:58.280Z,2.6
2022-11-25T00:14:04.133Z,2.4
2022-11-25T00:16:10.056Z,2.6
2022-11-25T00:18:15.757Z,1.8
2022-11-25T00:20:21.467Z,2.5
2022-11-25T00:22:27.312Z,2
2022-11-25T00:24:36.423Z,1.4
2022-11-25T00:26:42.042Z,1.8
2022-11-25T00:28:47.860Z,1.6
2022-11-25T00:30:53.653Z,2
2022-11-25T00:32:59.481Z,3.2
2022-11-25T00:35:05.275Z,1.9
2022-11-25T00:37:11.111Z,2.8
2022-11-25T00:39:20.009Z,3.7
2022-11-25T00:41:25.847Z,1.7
2022-11-25T00:43:31.663Z,3.3
2022-11-25T00:44:36.730Z,3.3
2022-11-25T00:46:41.904Z,1.7
2022-11-25T00:48:47.747Z,2.5
2022-11-25T00:50:53.536Z,1.9
2022-11-25T00:55:08.254Z,2.6
2022-11-25T00:57:14.105Z,2.7
2022-11-25T00:59:19.889Z,2.2
2022-11-25T01:01:25.836Z,2.5
2022-11-25T01:03:31.527Z,3
2022-11-25T01:05:37.345Z,2.2
2022-11-25T01:07:46.303Z,2.3
2022-11-25T01:11:57.853Z,3.3
2022-11-25T01:16:09.547Z,3.7
2022-11-25T01:18:15.320Z,2.3
2022-11-25T01:20:21.107Z,2.8
2022-11-25T01:22:30.026Z,1.8
2022-11-25T01:32:59.111Z,3.1
2022-11-25T01:35:04.905Z,2.6
2022-11-25T01:37:13.792Z,2.9
2022-11-25T01:39:19.584Z,2.6
2022-11-25T01:42:29.842Z,2.2
2022-11-25T01:44:36.011Z,3.1
2022-11-25T01:46:41.478Z,2.9
2022-11-25T01:48:47.285Z,2.6
2022-11-25T01:50:56.226Z,4.3
2022-11-25T01:53:02.042Z,3.7
2022-11-25T01:55:07.841Z,3.8
2022-11-25T01:59:19.464Z,3
2022-11-25T02:03:31.081Z,2.9
2022-11-25T02:05:39.984Z,2.4
2022-11-25T02:11:57.403Z,3.2
2022-11-25T02:16:09.089Z,3.6
2022-11-25T02:20:23.740Z,3.2
2022-11-25T02:22:29.557Z,2.9
2022-11-25T02:24:35.738Z,2.7
2022-11-25T02:26:41.181Z,2.2
2022-11-25T02:28:46.976Z,2.9
2022-11-25T02:30:52.788Z,2.9
2022-11-25T02:32:58.595Z,2.4
2022-11-25T02:35:07.455Z,1.9
2022-11-25T02:37:13.297Z,2.9
2022-11-25T02:39:19.095Z,4
2022-11-25T02:40:23.538Z,2.4
2022-11-25T02:42:29.366Z,4.2
2022-11-25T02:44:35.513Z,3.7
2022-11-25T02:46:40.986Z,2.8
2022-11-25T02:49:09.413Z,3.3
2022-11-25T02:50:55.704Z,2.9
2022-11-25T02:53:01.519Z,3.4
2022-11-25T02:55:07.346Z,3.4
2022-11-25T02:57:13.155Z,2.6
2022-11-25T02:59:18.953Z,2.5
2022-11-25T03:01:24.870Z,2.9
2022-11-25T03:05:39.498Z,2.9
2022-11-25T03:09:51.135Z,3.7
2022-11-25T03:11:56.953Z,3.1
2022-11-25T03:14:02.728Z,3.5
2022-11-25T03:16:08.621Z,3
2022-11-25T03:18:17.462Z,2.8
2022-11-25T03:22:29.072Z,3.1
2022-11-25T03:26:40.725Z,3.4
2022-11-25T03:30:52.333Z,2.9
2022-11-25T03:33:01.235Z,2.4
2022-11-25T03:35:07.027Z,3.5
2022-11-25T03:37:12.931Z,3.2
2022-11-25T03:41:38.461Z,2.6
2022-11-25T03:43:44.428Z,2.8
2022-11-25T03:45:53.273Z,2.7
2022-11-25T03:47:58.996Z,4.7
2022-11-25T03:50:04.803Z,2.7
2022-11-25T03:52:10.598Z,2.1
2022-11-25T03:54:16.417Z,2.8
2022-11-25T03:56:22.242Z,2.8
2022-11-25T03:58:29.658Z,3.3
2022-11-25T04:00:38.505Z,3.3
2022-11-25T04:02:44.398Z,4
2022-11-25T04:04:50.124Z,3.7
2022-11-25T04:09:01.784Z,5
2022-11-25T04:11:07.583Z,3.5
2022-11-25T04:13:13.380Z,2.9
2022-11-25T04:15:22.275Z,2.9
2022-11-25T04:17:28.120Z,2.5
2022-11-25T04:21:39.733Z,2.3
2022-11-25T04:23:45.535Z,3
2022-11-25T04:27:57.143Z,2.7
2022-11-25T04:30:06.039Z,3.1
2022-11-25T04:32:11.860Z,2.8
2022-11-25T04:34:17.687Z,2.9
2022-11-25T04:35:22.130Z,2.3
2022-11-25T04:41:39.537Z,3.1
2022-11-25T04:43:48.443Z,2.5
2022-11-25T04:48:00.095Z,2.8
2022-11-25T04:50:05.903Z,2.3
2022-11-25T04:52:11.740Z,2.7
2022-11-25T04:54:17.763Z,2.9
2022-11-25T05:00:38.112Z,3.3
2022-11-25T05:06:55.522Z,3
2022-11-25T05:11:07.141Z,2.5
2022-11-25T05:17:27.655Z,2.3
2022-11-25T05:19:33.490Z,2.7
2022-11-25T05:21:39.291Z,1.5
2022-11-25T05:23:45.101Z,1.5
2022-11-25T05:25:50.905Z,2.2
2022-11-25T05:32:11.425Z,2.1
2022-11-25T05:35:21.665Z,1.6
2022-11-25T05:37:27.500Z,1.5
2022-11-25T05:39:33.294Z,0.9
2022-11-25T05:41:42.245Z,1.7
2022-11-25T05:43:48.155Z,0.6
2022-11-25T05:45:53.902Z,0.9
2022-11-25T05:47:59.656Z,0.8
2022-11-25T05:50:05.490Z,1.3
2022-11-25T05:52:11.297Z,1.4
2022-11-25T05:54:17.099Z,1.2
2022-11-25T06:00:37.603Z,1.1
2022-11-25T06:02:43.532Z,1.8
2022-11-25T06:04:49.235Z,1.2
2022-11-25T06:06:55.054Z,1.4
2022-11-25T06:09:00.884Z,2.1
2022-11-25T06:11:09.793Z,2.6
2022-11-25T06:13:15.585Z,1.4
2022-11-25T06:15:21.425Z,1.5
2022-11-25T06:17:27.285Z,1.7
2022-11-25T06:19:33.071Z,2.4
2022-11-25T06:21:38.910Z,2.2
2022-11-25T06:23:44.703Z,1.8
2022-11-25T06:25:53.578Z,0.8
2022-11-25T06:28:11.796Z,2
2022-11-25T06:31:09.700Z,2.1
2022-11-25T06:33:15.471Z,1.7
2022-11-25T06:35:21.294Z,7.2
2022-11-25T06:37:27.083Z,2
2022-11-25T06:39:35.953Z,2.2
2022-11-25T06:41:41.797Z,2.3
2022-11-25T06:43:47.604Z,2.5
2022-11-25T06:45:53.489Z,3.7
2022-11-25T06:47:59.218Z,2.6
2022-11-25T06:50:05.026Z,3.1
2022-11-25T06:52:10.826Z,2.5
2022-11-25T06:54:19.731Z,3.2
2022-11-25T06:56:25.556Z,3.3
2022-11-25T07:00:37.185Z,3
2022-11-25T07:02:48.376Z,2.8
2022-11-25T07:04:48.761Z,2.5
2022-11-25T07:06:54.586Z,3.1
2022-11-25T07:11:09.271Z,3.1
2022-11-25T07:15:20.853Z,2.6
2022-11-25T07:17:26.645Z,2.2
2022-11-25T07:19:32.481Z,2.3
2022-11-25T07:21:38.239Z,2
2022-11-25T07:23:47.122Z,3.1
2022-11-25T07:25:52.932Z,2.4
2022-11-25T07:27:58.707Z,2.3
2022-11-25T07:31:21.658Z,3.4
2022-11-25T07:32:36.067Z,3.8
2022-11-25T07:34:41.924Z,2.8
2022-11-25T07:36:50.756Z,2.7
2022-11-25T07:38:56.552Z,3.3
2022-11-25T07:43:08.131Z,2.9
2022-11-25T07:45:13.935Z,3.5
2022-11-25T07:47:19.718Z,3.5
2022-11-25T07:51:34.376Z,3.9
2022-11-25T07:55:45.951Z,2.5
2022-11-25T07:57:51.709Z,3.3
2022-11-25T07:59:57.532Z,3.1
2022-11-25T08:02:03.381Z,2.8
2022-11-25T08:04:09.110Z,4.5
2022-11-25T08:06:17.973Z,3.2
2022-11-25T08:08:23.770Z,3.1
2022-11-25T08:10:29.548Z,3.5
2022-11-25T08:12:35.369Z,3
2022-11-25T08:16:46.936Z,2.8
2022-11-25T08:23:07.415Z,3.2
2022-11-25T08:25:13.218Z,3.5
2022-11-25T08:26:17.646Z,3.3
2022-11-25T08:28:23.433Z,3.3
2022-11-25T08:30:29.231Z,2.7
2022-11-25T08:34:43.936Z,2.7
2022-11-25T08:36:49.762Z,3.2
2022-11-25T08:38:55.536Z,3.8
2022-11-25T08:43:07.149Z,3.3
2022-11-25T08:45:12.943Z,5.4
2022-11-25T08:49:27.649Z,3.2
2022-11-25T08:55:45.065Z,2.9
2022-11-25T08:57:50.869Z,2.7
2022-11-25T08:59:56.678Z,2.5
2022-11-25T09:02:02.631Z,3.2
2022-11-25T09:04:11.337Z,2.8
2022-11-25T09:06:17.168Z,2.6
2022-11-25T09:08:22.924Z,3.7
2022-11-25T09:10:28.743Z,3.1
2022-11-25T09:12:34.527Z,4.7
2022-11-25T09:14:40.318Z,2.1
2022-11-25T09:16:46.282Z,2.6
2022-11-25T09:18:56.292Z,2.9
2022-11-25T09:23:06.626Z,3.2
2022-11-25T09:24:11.102Z,3.2
2022-11-25T09:26:16.883Z,3.2
2022-11-25T09:28:22.686Z,3.6
2022-11-25T09:30:28.492Z,2.5
2022-11-25T09:32:37.366Z,2.4
2022-11-25T09:34:43.171Z,4.2
2022-11-25T09:36:48.966Z,3
2022-11-25T09:38:54.758Z,2.9
2022-11-25T09:41:00.597Z,3.6
2022-11-25T09:43:06.404Z,2
2022-11-25T09:45:12.217Z,2.1
2022-11-25T09:47:21.092Z,3.5
2022-11-25T09:49:26.928Z,1.9
2022-11-25T09:51:32.739Z,5.3
2022-11-25T09:55:44.375Z,2.6
2022-11-25T09:57:52.881Z,2.5
2022-11-25T10:02:06.518Z,2.1
2022-11-25T10:04:12.322Z,3.2
2022-11-25T10:08:23.970Z,3
2022-11-25T10:10:29.801Z,2.1
2022-11-25T10:12:35.621Z,2.5
2022-11-25T10:14:41.454Z,2.8
2022-11-25T10:16:51.785Z,3.2
2022-11-25T10:18:56.149Z,2.7
2022-11-25T10:21:01.989Z,2.5
2022-11-25T10:24:12.255Z,2.3
2022-11-25T10:28:23.897Z,3.9
2022-11-25T10:30:32.819Z,3.5
2022-11-25T10:36:50.175Z,3.7
2022-11-25T10:47:22.347Z,3.5
2022-11-25T10:49:28.024Z,3.3
2022-11-25T10:51:33.827Z,2.6
2022-11-25T10:53:39.637Z,3
2022-11-25T10:55:45.479Z,2.6
2022-11-25T10:57:51.218Z,2.5
2022-11-25T11:00:00.158Z,3.4
2022-11-25T11:02:05.882Z,3.2
2022-11-25T11:04:11.678Z,2.9
2022-11-25T11:10:29.072Z,3.9
2022-11-25T11:16:49.333Z,3.4
2022-11-25T11:18:55.080Z,2.9
2022-11-25T11:21:26.367Z,2.9
2022-11-25T11:25:37.863Z,2.8
2022-11-25T11:27:46.586Z,4.2
2022-11-25T11:29:52.480Z,13.8
2022-11-25T11:31:58.169Z,3.7
2022-11-25T11:40:21.140Z,2.9
2022-11-25T11:42:29.855Z,3.2
2022-11-25T11:48:52.982Z,3.4
2022-11-25T11:50:52.826Z,3
2022-11-25T11:52:58.583Z,4
2022-11-25T11:55:04.320Z,3.1
2022-11-25T11:57:13.033Z,2.8
2022-11-25T11:59:18.804Z,2.7
2022-11-25T12:03:30.379Z,2.5
2022-11-25T12:05:36.048Z,2.7
2022-11-25T12:07:42.012Z,2.9
2022-11-25T12:09:47.539Z,2.5
2022-11-25T12:11:56.266Z,4
2022-11-25T12:14:02.041Z,3.1
2022-11-25T12:16:07.838Z,3.4
2022-11-25T12:17:12.150Z,5.1
2022-11-25T12:19:17.894Z,3
2022-11-25T12:21:23.645Z,3.2
2022-11-25T12:23:29.393Z,3.5
2022-11-25T12:25:38.138Z,3.4
2022-11-25T12:27:43.910Z,4.1
2022-11-25T12:29:49.653Z,4.3
2022-11-25T12:34:01.154Z,2.9
2022-11-25T12:36:06.934Z,3.9
2022-11-25T12:38:12.709Z,3.7
2022-11-25T12:40:21.429Z,3.6
2022-11-25T12:42:27.191Z,3.2
2022-11-25T12:50:50.282Z,2.6
2022-11-25T12:52:55.992Z,3.4
2022-11-25T12:55:04.742Z,4.1
2022-11-25T12:57:10.483Z,2.6
2022-11-25T12:59:16.253Z,3.6
2022-11-25T13:01:22.072Z,3.9
2022-11-25T13:03:27.745Z,3.8
2022-11-25T13:05:40.435Z,4.1
2022-11-25T13:07:39.334Z,4.5
2022-11-25T13:09:48.005Z,3.4
2022-11-25T13:11:54.109Z,3.1
2022-11-25T13:13:59.837Z,2.7
2022-11-25T13:15:04.199Z,4
2022-11-25T13:17:10.223Z,5
2022-11-25T13:19:15.427Z,4.3
2022-11-25T13:21:21.185Z,4.8
2022-11-25T13:23:29.916Z,5.8
2022-11-25T13:29:47.263Z,3.6
2022-11-25T13:33:58.754Z,3.9
2022-11-25T13:38:13.232Z,3.2
2022-11-25T13:40:18.985Z,3.4
2022-11-25T13:42:24.762Z,3.8
2022-11-25T13:44:30.493Z,3.2
2022-11-25T13:46:36.255Z,4.7
2022-11-25T13:48:42.039Z,3.1
2022-11-25T13:51:10.030Z,3.2
2022-11-25T13:52:56.522Z,4.1
2022-11-25T13:55:02.309Z,3.1
2022-11-25T14:01:22.530Z,3.2
2022-11-25T14:03:25.465Z,2.9
2022-11-25T14:07:40.065Z,3.1
2022-11-25T14:09:45.595Z,2.7
2022-11-25T14:11:51.366Z,3.5
2022-11-25T14:12:55.718Z,3.5
2022-11-25T14:15:01.508Z,2.9
2022-11-25T14:17:07.266Z,3.4
2022-11-25T14:21:21.753Z,4.1
2022-11-25T14:23:27.528Z,1.9
2022-11-25T14:33:56.331Z,3
2022-11-25T14:40:16.610Z,2.2
2022-11-25T14:44:28.137Z,2.8
2022-11-25T14:50:48.390Z,5.7
2022-11-25T14:54:59.920Z,2.9
2022-11-25T14:57:05.811Z,3.3
2022-11-25T14:59:11.426Z,3.5
2022-11-25T15:01:17.171Z,3.4
2022-11-25T15:03:22.937Z,2.4
2022-11-25T15:05:31.690Z,2.1
2022-11-25T15:07:37.495Z,3.8
2022-11-25T15:12:14.510Z,1.8
2022-11-25T15:14:20.272Z,6.3
2022-11-25T15:16:26.125Z,8.3
2022-11-25T15:18:34.771Z,23.7
2022-11-25T15:20:40.506Z,27.6
2022-11-25T15:22:46.264Z,7.5
2022-11-25T15:24:55.512Z,3.8
2022-11-25T15:26:57.772Z,4.9
2022-11-25T15:29:03.520Z,5.5
2022-11-25T15:31:09.264Z,9.9
2022-11-25T15:33:17.990Z,5.9
2022-11-25T15:35:23.764Z,3.9
2022-11-25T15:37:29.525Z,7.9
2022-11-25T15:48:01.340Z,7.7
2022-11-25T15:50:07.062Z,6
2022-11-25T15:54:18.547Z,4.8
2022-11-25T15:56:24.271Z,4.7
2022-11-25T15:58:30.036Z,4.5
2022-11-25T16:00:35.910Z,5.3
2022-11-25T16:02:46.349Z,5.3
2022-11-25T16:04:52.118Z,5.3
2022-11-25T16:06:57.844Z,5.3
2022-11-25T16:08:02.286Z,5.5
2022-11-25T16:10:08.114Z,4.3
2022-11-25T16:14:19.714Z,6.5
2022-11-25T16:16:28.614Z,6.5
2022-11-25T16:22:45.924Z,5.4
2022-11-25T16:26:57.630Z,7.6
2022-11-25T16:31:12.131Z,6.5
2022-11-25T16:33:17.952Z,8.7
2022-11-25T16:35:23.783Z,10.1
2022-11-25T16:37:29.619Z,14.8
2022-11-25T16:39:35.842Z,7.8
2022-11-25T16:41:41.277Z,8.7
2022-11-25T16:43:47.099Z,7.5
2022-11-25T16:50:11.318Z,4.9
2022-11-25T16:54:19.310Z,20.4
2022-11-25T16:56:25.125Z,25.6
2022-11-25T16:58:30.937Z,19.4
2022-11-25T17:00:39.841Z,16.3
2022-11-25T17:02:45.867Z,18
2022-11-25T17:04:51.482Z,10.9
2022-11-25T17:05:55.936Z,25.4
2022-11-25T17:08:01.824Z,14.1
2022-11-25T17:10:07.562Z,12.1
2022-11-25T17:12:13.360Z,6.3
2022-11-25T17:14:22.428Z,8.6
2022-11-25T17:16:28.189Z,13
2022-11-25T17:18:33.931Z,9.5
2022-11-25T17:20:39.691Z,6.9
2022-11-25T17:22:45.499Z,7.2
2022-11-25T17:24:51.327Z,7.1
2022-11-25T17:26:57.125Z,6.1
2022-11-25T17:29:05.998Z,6.9
2022-11-25T17:31:11.802Z,8.8
2022-11-25T17:33:17.588Z,8.3
2022-11-25T17:35:23.387Z,14.8
2022-11-25T17:37:29.193Z,15.4
2022-11-25T17:39:35.278Z,10.3
2022-11-25T17:41:40.786Z,10.4
2022-11-25T17:43:49.662Z,15.9
2022-11-25T17:45:55.499Z,9.9
2022-11-25T17:48:01.269Z,7.2
2022-11-25T17:50:07.075Z,19.4
2022-11-25T17:54:18.655Z,8.2
2022-11-25T17:56:24.434Z,8.5
2022-11-25T18:00:39.123Z,13.1
2022-11-25T18:03:49.341Z,15.5
2022-11-25T18:05:55.124Z,31
2022-11-25T18:08:01.001Z,25.3
2022-11-25T18:10:06.701Z,27.4
2022-11-25T18:16:27.269Z,17
2022-11-25T18:18:32.916Z,22.2
2022-11-25T18:20:38.683Z,27.9
2022-11-25T18:22:45.439Z,17.4
2022-11-25T18:24:50.238Z,12.7
2022-11-25T18:26:59.136Z,15.1
2022-11-25T18:35:22.252Z,10.8
2022-11-25T18:37:28.025Z,9.2
2022-11-25T18:39:33.814Z,14.6
2022-11-25T18:41:42.687Z,16.9
2022-11-25T18:43:48.454Z,14.6
2022-11-25T18:45:54.305Z,13.3
2022-11-25T18:48:00.008Z,13.5
2022-11-25T18:50:05.781Z,15.4
2022-11-25T18:52:11.557Z,18.7
2022-11-25T18:54:17.317Z,21.7
2022-11-25T18:56:26.135Z,22.9
2022-11-25T18:58:31.910Z,16
2022-11-25T19:00:37.720Z,16.4
2022-11-25T19:03:09.253Z,26.5
2022-11-25T19:05:15.045Z,23.8
2022-11-25T19:07:20.825Z,15.2
2022-11-25T19:09:29.599Z,15.8
2022-11-25T19:11:35.387Z,16
2022-11-25T19:15:46.938Z,22
2022-11-25T19:17:52.684Z,23.1
2022-11-25T19:19:58.465Z,16.1
2022-11-25T19:22:04.183Z,18.3
2022-11-25T19:26:18.828Z,15.7
2022-11-25T19:30:30.326Z,15.7
2022-11-25T19:36:47.620Z,19.8
2022-11-25T19:41:02.210Z,19.6
2022-11-25T19:43:07.960Z,41.7
2022-11-25T19:45:13.698Z,35.5
2022-11-25T19:47:19.556Z,20.5
2022-11-25T19:49:25.218Z,15.7
2022-11-25T19:55:45.525Z,22.4
2022-11-25T19:57:51.296Z,21.1
2022-11-25T19:58:55.717Z,19.1
2022-11-25T20:01:01.572Z,21.8
2022-11-25T20:03:07.241Z,15.2
2022-11-25T20:05:12.996Z,12.8
2022-11-25T20:17:50.545Z,16.3
2022-11-25T20:24:10.896Z,14.3
2022-11-25T20:28:22.381Z,11.4
2022-11-25T20:30:28.119Z,13
2022-11-25T20:32:33.866Z,13
2022-11-25T20:34:42.239Z,9.9
2022-11-25T20:36:48.462Z,13.8
2022-11-25T20:38:54.207Z,14.1
2022-11-25T20:40:59.936Z,27.5
2022-11-25T20:45:11.456Z,14.3
2022-11-25T20:47:17.195Z,13.8
2022-11-25T20:49:23.071Z,31.1
2022-11-25T20:53:37.494Z,24.7
2022-11-25T20:55:43.230Z,22
2022-11-25T20:56:47.624Z,22.7
2022-11-25T20:58:53.376Z,24.1
2022-11-25T21:00:59.179Z,26.4
2022-11-25T21:03:04.888Z,15.5
2022-11-25T21:05:13.706Z,15.5
2022-11-25T21:07:19.604Z,19
2022-11-25T21:09:25.213Z,32.8
2022-11-25T21:11:30.966Z,44.4
2022-11-25T21:13:36.687Z,21.5
2022-11-25T21:15:42.429Z,16.1
2022-11-25T21:19:56.983Z,15.5
2022-11-25T21:22:02.764Z,15.4
2022-11-25T21:26:14.205Z,16.1
2022-11-25T21:28:19.955Z,18.3
2022-11-25T21:30:25.691Z,20.3
2022-11-25T21:32:31.448Z,20.4
2022-11-25T21:34:40.581Z,19.3
2022-11-25T21:36:45.952Z,24.2
2022-11-25T21:38:51.682Z,19.2
2022-11-25T21:40:57.425Z,17.8
2022-11-25T21:43:03.145Z,17.4
2022-11-25T21:45:08.855Z,19.4
2022-11-25T21:47:14.599Z,17.9
2022-11-25T21:53:37.450Z,17.1
2022-11-25T21:54:39.712Z,23.6
2022-11-25T21:56:45.026Z,16.7
2022-11-25T22:00:56.562Z,17.8
2022-11-25T22:03:05.402Z,27.4
2022-11-25T22:05:12.646Z,17
2022-11-25T22:07:18.380Z,18.7
2022-11-25T22:09:24.043Z,15.1
2022-11-25T22:11:29.765Z,13
2022-11-25T22:13:35.490Z,14.6
2022-11-25T22:15:41.214Z,14
2022-11-25T22:17:50.012Z,14.5
2022-11-25T22:19:55.736Z,21.4
2022-11-25T22:26:12.971Z,14.5
2022-11-25T22:30:24.427Z,15.7
2022-11-25T22:32:33.295Z,18.8
2022-11-25T22:36:44.699Z,16
2022-11-25T22:43:01.861Z,13.3
2022-11-25T22:45:07.624Z,17.2
2022-11-25T22:47:16.421Z,15.4
2022-11-25T22:49:22.162Z,15.3
2022-11-25T22:51:27.879Z,17
2022-11-25T22:53:59.404Z,14.4
2022-11-25T23:08:42.587Z,18.3
2022-11-25T23:12:54.059Z,19
2022-11-25T23:15:02.875Z,21.8
2022-11-25T23:17:08.617Z,17.4
2022-11-25T23:19:14.346Z,16.3
2022-11-25T23:21:20.130Z,16.4
2022-11-25T23:23:25.781Z,16.5
2022-11-25T23:25:31.505Z,13.9
2022-11-25T23:27:37.242Z,14
2022-11-25T23:29:46.054Z,16.1
2022-11-25T23:31:51.927Z,15
2022-11-25T23:36:07.639Z,15.4
2022-11-25T23:40:14.719Z,14.6
2022-11-25T23:44:29.232Z,14.9
2022-11-25T23:46:34.966Z,13.5
2022-11-25T23:49:45.107Z,13.9
2022-11-25T23:51:50.819Z,15.7
2022-11-25T23:53:56.544Z,12
2022-11-25T23:56:02.278Z,15.6
2022-11-25T23:58:11.097Z,15
